sensor_id;sensor_type;location;lat;lon;timestamp;P1;durP1;ratioP1;P2;durP2;ratioP2
67585;SDS011;55785;47.946;20.540;2023-03-14T00:00:00;6.50;;;4.00;;
67585;SDS011;55785;47.946;20.540;2023-03-14T00:02:26;6.67;;;4.40;;
67585;SDS011;55785;47.946;20.540;2023-03-14T00:04:53;7.13;;;4.50;;
67585;SDS011;55785;47.946;20.540;2023-03-14T00:07:19;6.83;;;4.60;;
67585;SDS011;55785;47.946;20.540;2023-03-14T00:09:45;10.60;;;6.63;;
67585;SDS011;55785;47.946;20.540;2023-03-14T00:12:10;9.53;;;5.30;;
67585;SDS011;55785;47.946;20.540;2023-03-14T00:14:35;6.97;;;4.40;;
67585;SDS011;55785;47.946;20.540;2023-03-14T00:17:01;7.17;;;4.60;;
67585;SDS011;55785;47.946;20.540;2023-03-14T00:19:26;10.67;;;6.17;;
67585;SDS011;55785;47.946;20.540;2023-03-14T00:21:51;9.07;;;5.37;;
67585;SDS011;55785;47.946;20.540;2023-03-14T00:24:17;9.13;;;5.07;;
67585;SDS011;55785;47.946;20.540;2023-03-14T00:26:42;6.70;;;4.40;;
67585;SDS011;55785;47.946;20.540;2023-03-14T00:29:07;6.17;;;4.20;;
67585;SDS011;55785;47.946;20.540;2023-03-14T00:31:33;6.40;;;4.27;;
67585;SDS011;55785;47.946;20.540;2023-03-14T00:33:58;4.73;;;3.60;;
67585;SDS011;55785;47.946;20.540;2023-03-14T00:36:24;7.27;;;4.70;;
67585;SDS011;55785;47.946;20.540;2023-03-14T00:38:50;5.50;;;3.70;;
67585;SDS011;55785;47.946;20.540;2023-03-14T00:41:17;4.97;;;3.67;;
67585;SDS011;55785;47.946;20.540;2023-03-14T00:43:44;5.73;;;3.80;;
67585;SDS011;55785;47.946;20.540;2023-03-14T00:46:10;5.90;;;4.03;;
67585;SDS011;55785;47.946;20.540;2023-03-14T00:48:36;7.10;;;4.20;;
67585;SDS011;55785;47.946;20.540;2023-03-14T00:51:02;7.37;;;4.53;;
67585;SDS011;55785;47.946;20.540;2023-03-14T00:53:29;7.10;;;4.77;;
67585;SDS011;55785;47.946;20.540;2023-03-14T00:55:55;8.47;;;4.50;;
67585;SDS011;55785;47.946;20.540;2023-03-14T00:58:20;9.70;;;4.60;;
67585;SDS011;55785;47.946;20.540;2023-03-14T01:00:45;7.70;;;4.40;;
67585;SDS011;55785;47.946;20.540;2023-03-14T01:03:12;5.57;;;4.20;;
67585;SDS011;55785;47.946;20.540;2023-03-14T01:05:38;8.27;;;5.10;;
67585;SDS011;55785;47.946;20.540;2023-03-14T01:08:04;6.40;;;4.40;;
67585;SDS011;55785;47.946;20.540;2023-03-14T01:10:30;8.93;;;5.40;;
67585;SDS011;55785;47.946;20.540;2023-03-14T01:12:55;8.67;;;4.90;;
67585;SDS011;55785;47.946;20.540;2023-03-14T01:15:21;7.97;;;4.37;;
67585;SDS011;55785;47.946;20.540;2023-03-14T01:17:46;15.93;;;7.53;;
67585;SDS011;55785;47.946;20.540;2023-03-14T01:20:12;9.47;;;5.50;;
67585;SDS011;55785;47.946;20.540;2023-03-14T01:22:39;7.40;;;4.60;;
67585;SDS011;55785;47.946;20.540;2023-03-14T01:25:06;7.37;;;4.30;;
67585;SDS011;55785;47.946;20.540;2023-03-14T01:27:32;6.50;;;4.20;;
67585;SDS011;55785;47.946;20.540;2023-03-14T01:29:58;6.37;;;3.70;;
67585;SDS011;55785;47.946;20.540;2023-03-14T01:32:23;8.40;;;4.10;;
67585;SDS011;55785;47.946;20.540;2023-03-14T01:34:48;6.27;;;3.90;;
67585;SDS011;55785;47.946;20.540;2023-03-14T01:37:14;6.20;;;3.70;;
67585;SDS011;55785;47.946;20.540;2023-03-14T01:39:39;6.13;;;3.50;;
67585;SDS011;55785;47.946;20.540;2023-03-14T01:42:04;6.33;;;3.57;;
67585;SDS011;55785;47.946;20.540;2023-03-14T01:47:18;6.63;;;3.70;;
67585;SDS011;55785;47.946;20.540;2023-03-14T01:49:45;6.57;;;3.47;;
67585;SDS011;55785;47.946;20.540;2023-03-14T01:57:21;6.00;;;3.67;;
67585;SDS011;55785;47.946;20.540;2023-03-14T01:59:54;6.47;;;3.70;;
67585;SDS011;55785;47.946;20.540;2023-03-14T02:02:32;5.73;;;3.47;;
67585;SDS011;55785;47.946;20.540;2023-03-14T02:04:57;7.90;;;3.80;;
67585;SDS011;55785;47.946;20.540;2023-03-14T02:07:45;5.97;;;3.60;;
67585;SDS011;55785;47.946;20.540;2023-03-14T02:10:14;5.77;;;3.53;;
67585;SDS011;55785;47.946;20.540;2023-03-14T02:12:41;5.70;;;3.30;;
67585;SDS011;55785;47.946;20.540;2023-03-14T02:15:07;4.50;;;3.40;;
67585;SDS011;55785;47.946;20.540;2023-03-14T02:17:33;5.80;;;3.47;;
67585;SDS011;55785;47.946;20.540;2023-03-14T02:20:07;6.50;;;3.80;;
67585;SDS011;55785;47.946;20.540;2023-03-14T02:22:54;5.37;;;3.53;;
67585;SDS011;55785;47.946;20.540;2023-03-14T02:27:56;5.10;;;3.30;;
67585;SDS011;55785;47.946;20.540;2023-03-14T02:30:23;4.80;;;3.40;;
67585;SDS011;55785;47.946;20.540;2023-03-14T02:35:39;5.37;;;3.27;;
67585;SDS011;55785;47.946;20.540;2023-03-14T02:38:50;5.63;;;3.57;;
67585;SDS011;55785;47.946;20.540;2023-03-14T02:41:01;7.17;;;3.70;;
67585;SDS011;55785;47.946;20.540;2023-03-14T02:43:27;7.53;;;3.90;;
67585;SDS011;55785;47.946;20.540;2023-03-14T02:45:52;6.67;;;4.03;;
67585;SDS011;55785;47.946;20.540;2023-03-14T02:48:19;5.97;;;3.97;;
67585;SDS011;55785;47.946;20.540;2023-03-14T02:50:50;6.93;;;4.00;;
67585;SDS011;55785;47.946;20.540;2023-03-14T02:53:19;5.37;;;3.83;;
67585;SDS011;55785;47.946;20.540;2023-03-14T02:55:49;6.00;;;3.87;;
67585;SDS011;55785;47.946;20.540;2023-03-14T02:58:15;5.33;;;3.90;;
67585;SDS011;55785;47.946;20.540;2023-03-14T03:00:41;7.30;;;3.83;;
67585;SDS011;55785;47.946;20.540;2023-03-14T03:03:07;5.40;;;3.70;;
67585;SDS011;55785;47.946;20.540;2023-03-14T03:05:32;6.97;;;4.20;;
67585;SDS011;55785;47.946;20.540;2023-03-14T03:07:58;6.37;;;3.87;;
67585;SDS011;55785;47.946;20.540;2023-03-14T03:10:23;5.17;;;3.77;;
67585;SDS011;55785;47.946;20.540;2023-03-14T03:12:49;5.67;;;3.77;;
67585;SDS011;55785;47.946;20.540;2023-03-14T03:15:14;4.93;;;3.57;;
67585;SDS011;55785;47.946;20.540;2023-03-14T03:17:40;5.33;;;3.43;;
67585;SDS011;55785;47.946;20.540;2023-03-14T03:20:05;6.60;;;4.00;;
67585;SDS011;55785;47.946;20.540;2023-03-14T03:22:31;6.27;;;3.73;;
67585;SDS011;55785;47.946;20.540;2023-03-14T03:24:57;6.10;;;3.90;;
67585;SDS011;55785;47.946;20.540;2023-03-14T03:27:22;6.07;;;3.60;;
67585;SDS011;55785;47.946;20.540;2023-03-14T03:29:48;6.30;;;3.90;;
67585;SDS011;55785;47.946;20.540;2023-03-14T03:32:13;7.13;;;4.20;;
67585;SDS011;55785;47.946;20.540;2023-03-14T03:34:38;6.37;;;4.10;;
67585;SDS011;55785;47.946;20.540;2023-03-14T03:37:04;5.90;;;3.97;;
67585;SDS011;55785;47.946;20.540;2023-03-14T03:39:29;7.33;;;4.20;;
67585;SDS011;55785;47.946;20.540;2023-03-14T03:41:54;6.27;;;3.90;;
67585;SDS011;55785;47.946;20.540;2023-03-14T03:44:20;7.90;;;3.80;;
67585;SDS011;55785;47.946;20.540;2023-03-14T03:46:45;7.57;;;4.30;;
67585;SDS011;55785;47.946;20.540;2023-03-14T03:49:10;5.93;;;3.80;;
67585;SDS011;55785;47.946;20.540;2023-03-14T03:51:36;6.27;;;4.33;;
67585;SDS011;55785;47.946;20.540;2023-03-14T03:54:01;6.30;;;3.97;;
67585;SDS011;55785;47.946;20.540;2023-03-14T03:56:27;6.37;;;4.40;;
67585;SDS011;55785;47.946;20.540;2023-03-14T03:58:52;5.53;;;4.10;;
67585;SDS011;55785;47.946;20.540;2023-03-14T04:01:17;7.03;;;4.37;;
67585;SDS011;55785;47.946;20.540;2023-03-14T04:03:43;6.67;;;4.50;;
67585;SDS011;55785;47.946;20.540;2023-03-14T04:06:09;6.33;;;4.20;;
67585;SDS011;55785;47.946;20.540;2023-03-14T04:08:36;6.53;;;4.47;;
67585;SDS011;55785;47.946;20.540;2023-03-14T04:11:02;6.50;;;4.50;;
67585;SDS011;55785;47.946;20.540;2023-03-14T04:13:28;7.00;;;4.33;;
67585;SDS011;55785;47.946;20.540;2023-03-14T04:15:54;6.37;;;4.43;;
67585;SDS011;55785;47.946;20.540;2023-03-14T04:18:20;8.23;;;4.50;;
67585;SDS011;55785;47.946;20.540;2023-03-14T04:20:50;7.30;;;4.47;;
67585;SDS011;55785;47.946;20.540;2023-03-14T04:23:16;7.27;;;4.57;;
67585;SDS011;55785;47.946;20.540;2023-03-14T04:25:42;6.27;;;4.60;;
67585;SDS011;55785;47.946;20.540;2023-03-14T04:28:07;7.20;;;4.60;;
67585;SDS011;55785;47.946;20.540;2023-03-14T04:30:33;8.23;;;4.80;;
67585;SDS011;55785;47.946;20.540;2023-03-14T04:32:58;7.50;;;5.10;;
67585;SDS011;55785;47.946;20.540;2023-03-14T04:35:23;6.70;;;4.67;;
67585;SDS011;55785;47.946;20.540;2023-03-14T04:37:49;6.67;;;4.40;;
67585;SDS011;55785;47.946;20.540;2023-03-14T04:40:14;6.07;;;4.43;;
67585;SDS011;55785;47.946;20.540;2023-03-14T04:42:40;7.17;;;4.43;;
67585;SDS011;55785;47.946;20.540;2023-03-14T04:45:06;5.93;;;4.33;;
67585;SDS011;55785;47.946;20.540;2023-03-14T04:47:32;7.77;;;4.70;;
67585;SDS011;55785;47.946;20.540;2023-03-14T04:49:58;7.17;;;4.43;;
67585;SDS011;55785;47.946;20.540;2023-03-14T04:52:23;7.17;;;4.43;;
67585;SDS011;55785;47.946;20.540;2023-03-14T04:54:48;6.30;;;4.50;;
67585;SDS011;55785;47.946;20.540;2023-03-14T04:57:14;6.40;;;4.30;;
67585;SDS011;55785;47.946;20.540;2023-03-14T04:59:39;6.87;;;4.43;;
67585;SDS011;55785;47.946;20.540;2023-03-14T05:02:04;6.70;;;4.50;;
67585;SDS011;55785;47.946;20.540;2023-03-14T05:04:30;12.30;;;8.90;;
67585;SDS011;55785;47.946;20.540;2023-03-14T05:06:55;7.90;;;4.87;;
67585;SDS011;55785;47.946;20.540;2023-03-14T05:09:20;9.17;;;5.40;;
67585;SDS011;55785;47.946;20.540;2023-03-14T05:11:46;8.00;;;4.90;;
67585;SDS011;55785;47.946;20.540;2023-03-14T05:14:11;6.67;;;4.70;;
67585;SDS011;55785;47.946;20.540;2023-03-14T05:16:36;9.73;;;5.90;;
67585;SDS011;55785;47.946;20.540;2023-03-14T05:19:02;8.20;;;5.37;;
67585;SDS011;55785;47.946;20.540;2023-03-14T05:21:27;8.70;;;4.70;;
67585;SDS011;55785;47.946;20.540;2023-03-14T05:23:52;7.37;;;4.80;;
67585;SDS011;55785;47.946;20.540;2023-03-14T05:26:18;6.60;;;4.47;;
67585;SDS011;55785;47.946;20.540;2023-03-14T05:28:43;6.67;;;4.40;;
67585;SDS011;55785;47.946;20.540;2023-03-14T05:31:09;9.77;;;6.70;;
67585;SDS011;55785;47.946;20.540;2023-03-14T05:33:34;7.93;;;4.93;;
67585;SDS011;55785;47.946;20.540;2023-03-14T05:35:59;7.50;;;4.57;;
67585;SDS011;55785;47.946;20.540;2023-03-14T05:38:25;7.53;;;4.80;;
67585;SDS011;55785;47.946;20.540;2023-03-14T05:40:50;8.40;;;4.70;;
67585;SDS011;55785;47.946;20.540;2023-03-14T05:43:15;10.60;;;4.97;;
67585;SDS011;55785;47.946;20.540;2023-03-14T05:45:41;8.77;;;4.70;;
67585;SDS011;55785;47.946;20.540;2023-03-14T05:48:07;7.63;;;4.93;;
67585;SDS011;55785;47.946;20.540;2023-03-14T05:50:32;16.07;;;9.07;;
67585;SDS011;55785;47.946;20.540;2023-03-14T05:52:58;60.77;;;29.57;;
67585;SDS011;55785;47.946;20.540;2023-03-14T05:55:23;51.60;;;31.87;;
67585;SDS011;55785;47.946;20.540;2023-03-14T05:57:48;10.10;;;5.00;;
67585;SDS011;55785;47.946;20.540;2023-03-14T06:00:14;13.50;;;7.20;;
67585;SDS011;55785;47.946;20.540;2023-03-14T06:02:40;17.20;;;9.50;;
67585;SDS011;55785;47.946;20.540;2023-03-14T06:05:05;16.53;;;10.07;;
67585;SDS011;55785;47.946;20.540;2023-03-14T06:07:31;17.10;;;8.70;;
67585;SDS011;55785;47.946;20.540;2023-03-14T06:09:56;40.37;;;20.07;;
67585;SDS011;55785;47.946;20.540;2023-03-14T06:12:22;22.17;;;13.17;;
67585;SDS011;55785;47.946;20.540;2023-03-14T06:14:47;21.07;;;10.83;;
67585;SDS011;55785;47.946;20.540;2023-03-14T06:17:12;16.13;;;9.87;;
67585;SDS011;55785;47.946;20.540;2023-03-14T06:19:38;14.37;;;8.97;;
67585;SDS011;55785;47.946;20.540;2023-03-14T06:22:03;31.70;;;14.37;;
67585;SDS011;55785;47.946;20.540;2023-03-14T06:24:28;58.50;;;27.80;;
67585;SDS011;55785;47.946;20.540;2023-03-14T06:26:54;57.53;;;26.97;;
67585;SDS011;55785;47.946;20.540;2023-03-14T06:29:19;15.83;;;9.87;;
67585;SDS011;55785;47.946;20.540;2023-03-14T06:31:44;13.40;;;7.43;;
67585;SDS011;55785;47.946;20.540;2023-03-14T06:34:10;14.87;;;8.37;;
67585;SDS011;55785;47.946;20.540;2023-03-14T06:36:35;19.33;;;9.57;;
67585;SDS011;55785;47.946;20.540;2023-03-14T06:39:00;15.73;;;9.27;;
67585;SDS011;55785;47.946;20.540;2023-03-14T06:41:26;16.93;;;8.00;;
67585;SDS011;55785;47.946;20.540;2023-03-14T06:43:51;9.27;;;5.90;;
67585;SDS011;55785;47.946;20.540;2023-03-14T06:46:16;7.00;;;4.37;;
67585;SDS011;55785;47.946;20.540;2023-03-14T06:48:42;7.07;;;4.77;;
67585;SDS011;55785;47.946;20.540;2023-03-14T06:51:07;6.73;;;3.80;;
67585;SDS011;55785;47.946;20.540;2023-03-14T06:53:33;5.20;;;3.33;;
67585;SDS011;55785;47.946;20.540;2023-03-14T06:55:58;5.20;;;3.17;;
67585;SDS011;55785;47.946;20.540;2023-03-14T06:58:24;5.20;;;3.40;;
67585;SDS011;55785;47.946;20.540;2023-03-14T07:00:49;5.27;;;3.50;;
67585;SDS011;55785;47.946;20.540;2023-03-14T07:03:14;6.13;;;3.40;;
67585;SDS011;55785;47.946;20.540;2023-03-14T07:05:40;4.63;;;3.33;;
67585;SDS011;55785;47.946;20.540;2023-03-14T07:08:06;4.77;;;3.17;;
67585;SDS011;55785;47.946;20.540;2023-03-14T07:10:32;5.07;;;3.30;;
67585;SDS011;55785;47.946;20.540;2023-03-14T07:12:58;4.73;;;3.40;;
67585;SDS011;55785;47.946;20.540;2023-03-14T07:15:23;5.43;;;3.20;;
67585;SDS011;55785;47.946;20.540;2023-03-14T07:17:48;5.60;;;3.33;;
67585;SDS011;55785;47.946;20.540;2023-03-14T07:20:14;4.93;;;3.23;;
67585;SDS011;55785;47.946;20.540;2023-03-14T07:22:40;6.73;;;3.40;;
67585;SDS011;55785;47.946;20.540;2023-03-14T07:25:05;5.37;;;3.50;;
67585;SDS011;55785;47.946;20.540;2023-03-14T07:27:31;7.63;;;3.87;;
67585;SDS011;55785;47.946;20.540;2023-03-14T07:29:56;5.83;;;4.50;;
67585;SDS011;55785;47.946;20.540;2023-03-14T07:32:21;8.30;;;4.97;;
67585;SDS011;55785;47.946;20.540;2023-03-14T07:34:50;6.40;;;4.00;;
67585;SDS011;55785;47.946;20.540;2023-03-14T07:37:15;6.50;;;3.60;;
67585;SDS011;55785;47.946;20.540;2023-03-14T07:39:40;4.37;;;3.47;;
67585;SDS011;55785;47.946;20.540;2023-03-14T07:42:08;16.90;;;10.37;;
67585;SDS011;55785;47.946;20.540;2023-03-14T07:44:34;13.30;;;8.20;;
67585;SDS011;55785;47.946;20.540;2023-03-14T07:46:59;6.83;;;4.50;;
67585;SDS011;55785;47.946;20.540;2023-03-14T07:49:24;6.30;;;4.40;;
67585;SDS011;55785;47.946;20.540;2023-03-14T07:51:50;8.77;;;6.87;;
67585;SDS011;55785;47.946;20.540;2023-03-14T07:54:15;12.03;;;9.93;;
67585;SDS011;55785;47.946;20.540;2023-03-14T07:56:41;7.37;;;4.90;;
67585;SDS011;55785;47.946;20.540;2023-03-14T07:59:06;7.87;;;4.40;;
67585;SDS011;55785;47.946;20.540;2023-03-14T08:01:32;5.10;;;4.00;;
67585;SDS011;55785;47.946;20.540;2023-03-14T08:03:57;5.67;;;4.33;;
67585;SDS011;55785;47.946;20.540;2023-03-14T08:06:22;7.77;;;4.53;;
67585;SDS011;55785;47.946;20.540;2023-03-14T08:08:48;7.47;;;4.37;;
67585;SDS011;55785;47.946;20.540;2023-03-14T08:11:13;10.40;;;3.90;;
67585;SDS011;55785;47.946;20.540;2023-03-14T08:13:39;7.53;;;4.90;;
67585;SDS011;55785;47.946;20.540;2023-03-14T08:16:04;11.23;;;7.67;;
67585;SDS011;55785;47.946;20.540;2023-03-14T08:18:30;6.20;;;4.50;;
67585;SDS011;55785;47.946;20.540;2023-03-14T08:20:56;5.97;;;4.20;;
67585;SDS011;55785;47.946;20.540;2023-03-14T08:23:21;8.60;;;4.40;;
67585;SDS011;55785;47.946;20.540;2023-03-14T08:25:50;6.20;;;4.00;;
67585;SDS011;55785;47.946;20.540;2023-03-14T08:28:16;11.83;;;6.50;;
67585;SDS011;55785;47.946;20.540;2023-03-14T08:30:41;14.63;;;7.27;;
67585;SDS011;55785;47.946;20.540;2023-03-14T08:33:07;6.70;;;4.53;;
67585;SDS011;55785;47.946;20.540;2023-03-14T08:35:32;6.63;;;4.10;;
67585;SDS011;55785;47.946;20.540;2023-03-14T08:37:58;9.20;;;5.13;;
67585;SDS011;55785;47.946;20.540;2023-03-14T08:40:23;7.37;;;4.20;;
67585;SDS011;55785;47.946;20.540;2023-03-14T08:42:49;5.77;;;3.70;;
67585;SDS011;55785;47.946;20.540;2023-03-14T08:45:15;5.80;;;3.70;;
67585;SDS011;55785;47.946;20.540;2023-03-14T08:47:41;5.50;;;3.50;;
67585;SDS011;55785;47.946;20.540;2023-03-14T08:50:07;5.37;;;3.80;;
67585;SDS011;55785;47.946;20.540;2023-03-14T08:52:33;5.00;;;3.50;;
67585;SDS011;55785;47.946;20.540;2023-03-14T08:54:59;6.87;;;3.50;;
67585;SDS011;55785;47.946;20.540;2023-03-14T08:57:24;7.03;;;4.30;;
67585;SDS011;55785;47.946;20.540;2023-03-14T08:59:50;6.60;;;3.90;;
67585;SDS011;55785;47.946;20.540;2023-03-14T09:02:15;5.10;;;3.57;;
67585;SDS011;55785;47.946;20.540;2023-03-14T09:04:40;7.30;;;3.80;;
67585;SDS011;55785;47.946;20.540;2023-03-14T09:07:06;7.53;;;3.70;;
67585;SDS011;55785;47.946;20.540;2023-03-14T09:09:32;5.67;;;3.63;;
67585;SDS011;55785;47.946;20.540;2023-03-14T09:11:57;4.72;;;3.50;;
67585;SDS011;55785;47.946;20.540;2023-03-14T09:14:22;6.00;;;3.60;;
67585;SDS011;55785;47.946;20.540;2023-03-14T09:16:48;7.38;;;4.05;;
67585;SDS011;55785;47.946;20.540;2023-03-14T09:19:13;6.47;;;3.53;;
67585;SDS011;55785;47.946;20.540;2023-03-14T09:21:39;5.97;;;3.70;;
67585;SDS011;55785;47.946;20.540;2023-03-14T09:24:04;5.82;;;3.65;;
67585;SDS011;55785;47.946;20.540;2023-03-14T09:26:30;6.50;;;4.15;;
67585;SDS011;55785;47.946;20.540;2023-03-14T09:28:56;15.25;;;9.98;;
67585;SDS011;55785;47.946;20.540;2023-03-14T09:31:21;9.05;;;5.28;;
67585;SDS011;55785;47.946;20.540;2023-03-14T09:33:46;9.15;;;3.95;;
67585;SDS011;55785;47.946;20.540;2023-03-14T09:36:12;6.53;;;3.80;;
67585;SDS011;55785;47.946;20.540;2023-03-14T09:38:37;7.25;;;3.95;;
67585;SDS011;55785;47.946;20.540;2023-03-14T09:41:03;7.03;;;4.25;;
67585;SDS011;55785;47.946;20.540;2023-03-14T09:46:05;8.30;;;4.03;;
67585;SDS011;55785;47.946;20.540;2023-03-14T09:48:32;6.18;;;4.03;;
67585;SDS011;55785;47.946;20.540;2023-03-14T09:50:59;5.15;;;3.70;;
67585;SDS011;55785;47.946;20.540;2023-03-14T09:53:33;6.25;;;4.00;;
67585;SDS011;55785;47.946;20.540;2023-03-14T09:56:08;5.90;;;4.00;;
67585;SDS011;55785;47.946;20.540;2023-03-14T09:58:38;6.03;;;3.90;;
67585;SDS011;55785;47.946;20.540;2023-03-14T10:01:07;9.40;;;4.40;;
67585;SDS011;55785;47.946;20.540;2023-03-14T10:03:38;6.65;;;3.67;;
67585;SDS011;55785;47.946;20.540;2023-03-14T10:06:10;6.10;;;4.00;;
67585;SDS011;55785;47.946;20.540;2023-03-14T10:08:39;6.63;;;3.95;;
67585;SDS011;55785;47.946;20.540;2023-03-14T10:11:14;8.00;;;4.40;;
67585;SDS011;55785;47.946;20.540;2023-03-14T10:16:36;6.22;;;3.55;;
67585;SDS011;55785;47.946;20.540;2023-03-14T10:19:08;6.05;;;3.15;;
67585;SDS011;55785;47.946;20.540;2023-03-14T10:21:44;4.45;;;3.35;;
67585;SDS011;55785;47.946;20.540;2023-03-14T10:24:19;8.20;;;3.00;;
67585;SDS011;55785;47.946;20.540;2023-03-14T10:26:54;6.93;;;2.90;;
67585;SDS011;55785;47.946;20.540;2023-03-14T10:29:23;4.47;;;3.05;;
67585;SDS011;55785;47.946;20.540;2023-03-14T10:31:54;5.97;;;3.10;;
67585;SDS011;55785;47.946;20.540;2023-03-14T10:34:26;5.25;;;2.92;;
67585;SDS011;55785;47.946;20.540;2023-03-14T10:39:34;6.65;;;3.10;;
67585;SDS011;55785;47.946;20.540;2023-03-14T10:42:10;6.95;;;2.75;;
67585;SDS011;55785;47.946;20.540;2023-03-14T10:44:39;7.05;;;2.80;;
67585;SDS011;55785;47.946;20.540;2023-03-14T10:47:06;5.72;;;2.75;;
67585;SDS011;55785;47.946;20.540;2023-03-14T10:49:39;4.13;;;2.53;;
67585;SDS011;55785;47.946;20.540;2023-03-14T10:52:24;4.65;;;2.30;;
67585;SDS011;55785;47.946;20.540;2023-03-14T10:54:55;5.47;;;2.65;;
67585;SDS011;55785;47.946;20.540;2023-03-14T10:57:22;4.28;;;2.35;;
67585;SDS011;55785;47.946;20.540;2023-03-14T10:59:48;5.88;;;2.67;;
67585;SDS011;55785;47.946;20.540;2023-03-14T11:07:45;7.53;;;2.72;;
67585;SDS011;55785;47.946;20.540;2023-03-14T11:23:13;5.35;;;2.40;;
67585;SDS011;55785;47.946;20.540;2023-03-14T11:26:03;5.07;;;2.75;;
67585;SDS011;55785;47.946;20.540;2023-03-14T11:28:37;4.07;;;2.60;;
67585;SDS011;55785;47.946;20.540;2023-03-14T11:31:13;3.88;;;2.20;;
67585;SDS011;55785;47.946;20.540;2023-03-14T11:33:46;4.07;;;2.05;;
67585;SDS011;55785;47.946;20.540;2023-03-14T11:36:33;4.43;;;2.30;;
67585;SDS011;55785;47.946;20.540;2023-03-14T11:39:03;4.30;;;2.50;;
67585;SDS011;55785;47.946;20.540;2023-03-14T11:41:40;5.95;;;2.70;;
67585;SDS011;55785;47.946;20.540;2023-03-14T11:44:22;3.83;;;2.42;;
67585;SDS011;55785;47.946;20.540;2023-03-14T11:47:00;5.68;;;2.47;;
67585;SDS011;55785;47.946;20.540;2023-03-14T11:52:13;7.70;;;2.60;;
67585;SDS011;55785;47.946;20.540;2023-03-14T11:54:46;5.15;;;2.13;;
67585;SDS011;55785;47.946;20.540;2023-03-14T11:57:18;3.65;;;2.47;;
67585;SDS011;55785;47.946;20.540;2023-03-14T12:07:42;4.95;;;2.70;;
67585;SDS011;55785;47.946;20.540;2023-03-14T12:10:12;4.07;;;2.60;;
67585;SDS011;55785;47.946;20.540;2023-03-14T12:12:38;6.78;;;2.42;;
67585;SDS011;55785;47.946;20.540;2023-03-14T12:15:03;6.20;;;2.20;;
67585;SDS011;55785;47.946;20.540;2023-03-14T12:20:04;4.78;;;2.70;;
67585;SDS011;55785;47.946;20.540;2023-03-14T12:22:44;5.22;;;2.50;;
67585;SDS011;55785;47.946;20.540;2023-03-14T12:25:46;4.43;;;2.38;;
67585;SDS011;55785;47.946;20.540;2023-03-14T12:28:12;3.95;;;2.22;;
67585;SDS011;55785;47.946;20.540;2023-03-14T12:30:42;4.95;;;2.30;;
67585;SDS011;55785;47.946;20.540;2023-03-14T12:35:43;4.35;;;2.10;;
67585;SDS011;55785;47.946;20.540;2023-03-14T12:38:16;4.00;;;1.90;;
67585;SDS011;55785;47.946;20.540;2023-03-14T12:43:27;6.05;;;2.33;;
67585;SDS011;55785;47.946;20.540;2023-03-14T12:46:19;3.70;;;2.20;;
67585;SDS011;55785;47.946;20.540;2023-03-14T12:51:39;4.22;;;2.10;;
67585;SDS011;55785;47.946;20.540;2023-03-14T12:54:10;5.43;;;1.90;;
67585;SDS011;55785;47.946;20.540;2023-03-14T13:01:58;4.78;;;2.28;;
67585;SDS011;55785;47.946;20.540;2023-03-14T13:04:29;6.18;;;2.20;;
67585;SDS011;55785;47.946;20.540;2023-03-14T13:17:49;4.75;;;2.25;;
67585;SDS011;55785;47.946;20.540;2023-03-14T13:20:28;4.38;;;2.40;;
67585;SDS011;55785;47.946;20.540;2023-03-14T13:22:57;5.97;;;2.20;;
67585;SDS011;55785;47.946;20.540;2023-03-14T13:25:22;4.40;;;2.28;;
67585;SDS011;55785;47.946;20.540;2023-03-14T13:27:48;2.92;;;2.00;;
67585;SDS011;55785;47.946;20.540;2023-03-14T13:30:15;7.68;;;2.50;;
67585;SDS011;55785;47.946;20.540;2023-03-14T13:32:45;4.07;;;2.00;;
67585;SDS011;55785;47.946;20.540;2023-03-14T13:35:19;4.30;;;2.10;;
67585;SDS011;55785;47.946;20.540;2023-03-14T13:37:47;6.05;;;2.60;;
67585;SDS011;55785;47.946;20.540;2023-03-14T13:40:20;7.97;;;2.60;;
67585;SDS011;55785;47.946;20.540;2023-03-14T13:42:49;3.85;;;2.17;;
67585;SDS011;55785;47.946;20.540;2023-03-14T13:45:14;9.57;;;2.38;;
67585;SDS011;55785;47.946;20.540;2023-03-14T13:47:39;4.25;;;2.50;;
67585;SDS011;55785;47.946;20.540;2023-03-14T13:50:05;3.78;;;1.92;;
67585;SDS011;55785;47.946;20.540;2023-03-14T13:52:39;4.30;;;2.25;;
67585;SDS011;55785;47.946;20.540;2023-03-14T13:55:05;5.22;;;2.08;;
67585;SDS011;55785;47.946;20.540;2023-03-14T13:57:48;5.80;;;2.10;;
67585;SDS011;55785;47.946;20.540;2023-03-14T14:00:23;4.30;;;2.17;;
67585;SDS011;55785;47.946;20.540;2023-03-14T14:02:50;5.65;;;2.53;;
67585;SDS011;55785;47.946;20.540;2023-03-14T14:05:15;3.35;;;2.05;;
67585;SDS011;55785;47.946;20.540;2023-03-14T14:07:42;6.00;;;2.55;;
67585;SDS011;55785;47.946;20.540;2023-03-14T14:10:09;4.03;;;2.13;;
67585;SDS011;55785;47.946;20.540;2023-03-14T14:12:39;5.35;;;2.53;;
67585;SDS011;55785;47.946;20.540;2023-03-14T14:15:21;5.47;;;2.40;;
67585;SDS011;55785;47.946;20.540;2023-03-14T14:17:51;6.10;;;2.20;;
67585;SDS011;55785;47.946;20.540;2023-03-14T14:20:24;3.85;;;2.10;;
67585;SDS011;55785;47.946;20.540;2023-03-14T14:22:55;6.70;;;2.50;;
67585;SDS011;55785;47.946;20.540;2023-03-14T14:25:20;6.20;;;2.50;;
67585;SDS011;55785;47.946;20.540;2023-03-14T14:27:49;4.53;;;2.33;;
67585;SDS011;55785;47.946;20.540;2023-03-14T14:32:44;5.60;;;2.28;;
67585;SDS011;55785;47.946;20.540;2023-03-14T14:35:17;4.85;;;2.40;;
67585;SDS011;55785;47.946;20.540;2023-03-14T14:37:50;7.43;;;2.70;;
67585;SDS011;55785;47.946;20.540;2023-03-14T14:40:29;4.13;;;2.80;;
67585;SDS011;55785;47.946;20.540;2023-03-14T14:43:03;6.70;;;2.70;;
67585;SDS011;55785;47.946;20.540;2023-03-14T14:45:30;5.53;;;2.25;;
67585;SDS011;55785;47.946;20.540;2023-03-14T14:52:55;3.92;;;2.15;;
67585;SDS011;55785;47.946;20.540;2023-03-14T14:55:22;3.17;;;2.00;;
67585;SDS011;55785;47.946;20.540;2023-03-14T14:57:48;3.75;;;2.00;;
67585;SDS011;55785;47.946;20.540;2023-03-14T15:00:20;6.65;;;2.67;;
67585;SDS011;55785;47.946;20.540;2023-03-14T15:02:47;3.10;;;1.60;;
67585;SDS011;55785;47.946;20.540;2023-03-14T15:05:18;6.03;;;2.50;;
67585;SDS011;55785;47.946;20.540;2023-03-14T15:07:46;6.82;;;4.18;;
67585;SDS011;55785;47.946;20.540;2023-03-14T15:10:16;5.45;;;2.58;;
67585;SDS011;55785;47.946;20.540;2023-03-14T15:12:43;5.57;;;3.30;;
67585;SDS011;55785;47.946;20.540;2023-03-14T15:15:09;15.88;;;9.73;;
67585;SDS011;55785;47.946;20.540;2023-03-14T15:17:35;8.43;;;4.47;;
67585;SDS011;55785;47.946;20.540;2023-03-14T15:20:05;6.50;;;3.60;;
67585;SDS011;55785;47.946;20.540;2023-03-14T15:22:38;5.25;;;2.25;;
67585;SDS011;55785;47.946;20.540;2023-03-14T15:25:04;10.45;;;2.63;;
67585;SDS011;55785;47.946;20.540;2023-03-14T15:27:30;5.30;;;2.40;;
67585;SDS011;55785;47.946;20.540;2023-03-14T15:29:56;10.55;;;2.90;;
67585;SDS011;55785;47.946;20.540;2023-03-14T15:32:21;7.43;;;3.88;;
67585;SDS011;55785;47.946;20.540;2023-03-14T15:34:46;5.85;;;3.42;;
67585;SDS011;55785;47.946;20.540;2023-03-14T15:37:12;7.97;;;3.22;;
67585;SDS011;55785;47.946;20.540;2023-03-14T15:39:39;7.35;;;3.58;;
67585;SDS011;55785;47.946;20.540;2023-03-14T15:42:05;7.68;;;3.60;;
67585;SDS011;55785;47.946;20.540;2023-03-14T15:44:30;5.75;;;3.08;;
67585;SDS011;55785;47.946;20.540;2023-03-14T15:46:56;8.02;;;3.30;;
67585;SDS011;55785;47.946;20.540;2023-03-14T15:49:21;5.78;;;2.70;;
67585;SDS011;55785;47.946;20.540;2023-03-14T15:51:47;7.00;;;3.30;;
67585;SDS011;55785;47.946;20.540;2023-03-14T15:54:12;6.13;;;3.40;;
67585;SDS011;55785;47.946;20.540;2023-03-14T15:56:37;6.30;;;3.22;;
67585;SDS011;55785;47.946;20.540;2023-03-14T15:59:03;7.25;;;3.30;;